UES weather

Waukesha County Airport
Waukesha, Wisconsin, United States

Public forecast

Using degrees Fahrenheit for public forecast. Weather courtesy of forecast.io.

METAR (pilot weather report)

Retrieved 2019/07/21 19:45 UTC (40 minutes ago):

KUES 211945Z 03008KT 10SM SKC 26/12 A2999

TAF (pilot weather forecast)

Retrieved 2019/07/21 18:22 UTC (2 hours ago):

TAF KUES 211720Z 2118/2218 05008KT P6SM SCT250 FM220500 04006KT P6SM BKN100 FM221400 02009KT P6SM SCT180